createdAt,value
2023-03-22T00:01:28.242Z,63.71
2023-03-22T00:03:55.171Z,63.77
2023-03-22T00:06:22.368Z,63.87
2023-03-22T00:08:53.909Z,62.61
2023-03-22T00:11:24.376Z,62.22
2023-03-22T00:13:52.762Z,61.07
2023-03-22T00:16:21.314Z,60.74
2023-03-22T00:18:48.290Z,60.66
2023-03-22T00:21:17.263Z,60.80
2023-03-22T00:23:45.255Z,60.08
2023-03-22T00:26:14.332Z,58.00
2023-03-22T00:28:42.482Z,59.33
2023-03-22T00:31:11.010Z,64.31
2023-03-22T00:33:40.852Z,65.86
2023-03-22T00:36:09.098Z,62.93
2023-03-22T00:38:44.042Z,62.73
2023-03-22T00:41:19.852Z,62.33
2023-03-22T00:43:48.186Z,62.51
2023-03-22T00:46:17.470Z,62.79
2023-03-22T00:48:44.464Z,63.05
2023-03-22T00:51:12.102Z,64.07
2023-03-22T00:53:41.992Z,64.34
2023-03-22T00:56:14.171Z,64.20
2023-03-22T00:59:01.557Z,63.43
2023-03-22T01:01:29.220Z,62.07
2023-03-22T01:03:56.124Z,61.58
2023-03-22T01:06:23.218Z,61.17
2023-03-22T01:08:51.127Z,61.73
2023-03-22T01:11:18.441Z,61.50
2023-03-22T01:13:45.765Z,61.25
2023-03-22T01:16:12.727Z,61.12
2023-03-22T01:18:40.899Z,61.03
2023-03-22T01:21:09.094Z,60.75
2023-03-22T01:23:36.458Z,60.21
2023-03-22T01:26:04.406Z,59.75
2023-03-22T01:28:31.534Z,58.93
2023-03-22T01:31:02.685Z,60.83
2023-03-22T01:33:31.232Z,65.50
2023-03-22T01:35:58.254Z,66.45
2023-03-22T01:38:25.442Z,65.59
2023-03-22T01:40:58.136Z,65.24
2023-03-22T01:43:25.634Z,63.95
2023-03-22T01:45:54.225Z,62.61
2023-03-22T01:48:34.390Z,61.76
2023-03-22T01:51:07.995Z,61.72
2023-03-22T01:54:05.942Z,61.38
2023-03-22T01:56:36.610Z,60.85
2023-03-22T01:59:07.904Z,60.33
2023-03-22T02:01:49.716Z,60.18
2023-03-22T02:04:20.349Z,59.91
2023-03-22T02:06:48.504Z,59.89
2023-03-22T02:09:18.390Z,60.06
2023-03-22T02:11:57.739Z,60.44
2023-03-22T02:14:53.612Z,60.15
2023-03-22T02:17:46.590Z,60.07
2023-03-22T02:20:38.866Z,59.88
2023-03-22T02:23:30.964Z,60.04
2023-03-22T02:26:05.547Z,60.38
2023-03-22T02:28:45.823Z,60.70
2023-03-22T02:31:17.933Z,61.17
2023-03-22T02:34:15.753Z,61.06
2023-03-22T02:36:46.127Z,60.67
2023-03-22T02:39:22.551Z,60.70
2023-03-22T02:41:56.251Z,60.47
2023-03-22T02:44:27.156Z,60.46
2023-03-22T02:47:04.284Z,60.18
2023-03-22T02:49:41.376Z,60.01
2023-03-22T02:52:17.705Z,59.84
2023-03-22T02:55:00.238Z,59.98
2023-03-22T02:57:48.593Z,60.17
2023-03-22T03:00:18.928Z,60.02
2023-03-22T03:02:49.382Z,60.37
2023-03-22T03:05:18.340Z,61.18
2023-03-22T03:07:52.468Z,61.57
2023-03-22T03:10:21.394Z,61.79
2023-03-22T03:12:48.431Z,62.46
2023-03-22T03:15:18.802Z,62.96
2023-03-22T03:18:01.497Z,63.15
2023-03-22T03:20:49.641Z,63.32
2023-03-22T03:23:28.797Z,64.41
2023-03-22T03:26:09.583Z,64.77
2023-03-22T03:28:51.154Z,65.07
2023-03-22T03:31:30.243Z,65.61
2023-03-22T03:34:00.518Z,65.99
2023-03-22T03:36:29.658Z,66.08
2023-03-22T03:38:58.548Z,65.85
2023-03-22T03:41:29.594Z,65.59
2023-03-22T03:43:58.695Z,65.49
2023-03-22T03:46:26.338Z,65.54
2023-03-22T03:48:57.568Z,65.65
2023-03-22T03:51:27.793Z,65.84
2023-03-22T03:55:33.963Z,65.98
2023-03-22T03:58:00.908Z,66.27
2023-03-22T04:00:27.804Z,66.52
2023-03-22T04:03:21.024Z,66.37
2023-03-22T04:06:19.909Z,66.54
2023-03-22T04:08:53.681Z,66.66
2023-03-22T04:11:24.001Z,66.85
2023-03-22T04:13:52.603Z,67.05
2023-03-22T04:16:21.178Z,67.12
2023-03-22T04:18:48.887Z,66.98
2023-03-22T04:21:16.670Z,66.94
2023-03-22T04:23:52.288Z,67.27
2023-03-22T04:26:19.152Z,67.36
2023-03-22T04:28:54.338Z,67.50
2023-03-22T04:31:21.321Z,67.06
2023-03-22T04:33:55.975Z,66.60
2023-03-22T04:36:39.732Z,66.68
2023-03-22T04:39:21.677Z,66.72
2023-03-22T04:41:56.852Z,66.44
2023-03-22T04:44:23.890Z,66.07
2023-03-22T04:46:50.888Z,66.05
2023-03-22T04:49:18.006Z,66.45
2023-03-22T04:51:44.860Z,66.87
2023-03-22T04:54:23.654Z,67.59
2023-03-22T04:56:51.268Z,67.21
2023-03-22T04:59:20.486Z,66.94
2023-03-22T05:01:48.908Z,66.75
2023-03-22T05:04:19.664Z,66.89
2023-03-22T05:06:47.172Z,67.20
2023-03-22T05:09:23.336Z,67.13
2023-03-22T05:11:51.308Z,66.91
2023-03-22T05:14:28.361Z,66.13
2023-03-22T05:16:55.714Z,66.21
2023-03-22T05:19:24.699Z,65.91
2023-03-22T05:21:58.302Z,64.77
2023-03-22T05:24:33.815Z,64.76
2023-03-22T05:27:01.270Z,64.92
2023-03-22T05:29:28.856Z,64.85
2023-03-22T05:32:06.565Z,63.11
2023-03-22T05:34:36.077Z,62.45
2023-03-22T05:37:22.454Z,62.19
2023-03-22T05:39:53.117Z,62.54
2023-03-22T05:42:20.891Z,62.75
2023-03-22T05:44:47.848Z,62.77
2023-03-22T05:47:14.820Z,62.93
2023-03-22T05:49:53.720Z,62.79
2023-03-22T05:52:22.398Z,62.79
2023-03-22T05:55:13.864Z,62.86
2023-03-22T05:57:41.480Z,62.21
2023-03-22T06:00:16.434Z,61.53
2023-03-22T06:03:03.541Z,62.10
2023-03-22T06:05:32.531Z,61.50
2023-03-22T06:07:59.962Z,60.74
2023-03-22T06:10:29.454Z,61.30
2023-03-22T06:12:56.509Z,61.17
2023-03-22T06:15:29.145Z,60.91
2023-03-22T06:17:58.949Z,60.17
2023-03-22T06:20:27.504Z,60.31
2023-03-22T06:22:59.774Z,60.36
2023-03-22T06:25:27.168Z,60.33
2023-03-22T06:27:55.142Z,60.16
2023-03-22T06:30:22.605Z,59.52
2023-03-22T06:33:18.770Z,58.65
2023-03-22T06:35:48.328Z,61.24
2023-03-22T06:38:20.404Z,63.16
2023-03-22T06:40:47.525Z,64.49
2023-03-22T06:43:14.405Z,60.41
2023-03-22T06:45:43.660Z,58.19
2023-03-22T06:48:11.658Z,59.80
2023-03-22T06:51:08.297Z,61.49
2023-03-22T06:53:36.719Z,61.51
2023-03-22T06:56:04.598Z,60.27
2023-03-22T06:58:41.798Z,58.07
2023-03-22T07:01:08.753Z,55.03
2023-03-22T07:03:36.384Z,53.94
2023-03-22T07:06:08.950Z,52.35
2023-03-22T07:08:38.641Z,47.95
2023-03-22T07:11:06.837Z,45.86
2023-03-22T07:13:33.969Z,44.66
2023-03-22T07:16:03.811Z,42.70
2023-03-22T07:18:43.574Z,42.09
2023-03-22T07:21:10.656Z,40.95
2023-03-22T07:23:38.758Z,40.02
2023-03-22T07:26:09.555Z,39.73
2023-03-22T07:28:41.627Z,40.10
2023-03-22T07:31:11.769Z,41.03
2023-03-22T07:34:00.380Z,41.40
2023-03-22T07:36:32.809Z,40.83
2023-03-22T07:38:59.873Z,40.41
2023-03-22T07:41:32.946Z,40.22
2023-03-22T07:44:23.192Z,39.04
2023-03-22T07:47:30.592Z,38.76
2023-03-22T07:50:27.930Z,39.52
2023-03-22T07:52:56.353Z,39.86
2023-03-22T07:55:23.474Z,39.92
2023-03-22T07:57:51.484Z,39.73
2023-03-22T08:00:18.838Z,39.72
2023-03-22T08:02:52.386Z,39.83
2023-03-22T08:05:42.220Z,40.24
2023-03-22T08:08:13.740Z,40.48
2023-03-22T08:10:41.132Z,40.43
2023-03-22T08:13:08.177Z,40.10
2023-03-22T08:15:37.625Z,39.43
2023-03-22T08:18:04.905Z,36.91
2023-03-22T08:20:34.780Z,34.15
2023-03-22T08:23:05.847Z,34.84
2023-03-22T08:25:53.134Z,34.05
2023-03-22T08:28:20.456Z,32.60
2023-03-22T08:30:49.226Z,31.56
2023-03-22T08:33:16.549Z,31.24
2023-03-22T08:35:45.503Z,30.53
2023-03-22T08:38:12.651Z,29.66
2023-03-22T08:40:47.981Z,28.92
2023-03-22T08:43:20.752Z,27.98
2023-03-22T08:45:47.818Z,27.73
2023-03-22T08:48:16.490Z,27.74
2023-03-22T08:50:57.741Z,27.62
2023-03-22T08:53:30.945Z,27.89
2023-03-22T08:56:15.010Z,27.40
2023-03-22T08:58:50.089Z,27.25
2023-03-22T09:01:37.461Z,26.01
2023-03-22T09:04:07.093Z,24.78
2023-03-22T09:06:35.815Z,24.91
2023-03-22T09:09:03.627Z,24.95
2023-03-22T09:11:31.364Z,24.75
2023-03-22T09:13:58.220Z,24.43
2023-03-22T09:16:25.123Z,24.06
2023-03-22T09:18:52.056Z,23.68
2023-03-22T09:21:22.192Z,23.46
2023-03-22T09:23:56.862Z,24.39
2023-03-22T09:26:30.054Z,25.05
2023-03-22T09:28:57.063Z,26.31
2023-03-22T09:31:24.052Z,27.69
2023-03-22T09:34:01.017Z,30.18
2023-03-22T09:36:27.980Z,32.09
2023-03-22T09:38:54.887Z,34.23
2023-03-22T09:41:27.824Z,35.69
2023-03-22T09:43:59.852Z,37.37
2023-03-22T09:46:34.529Z,39.37
2023-03-22T09:49:06.281Z,40.74
2023-03-22T09:51:42.630Z,41.36
2023-03-22T09:54:21.668Z,41.74
2023-03-22T09:57:15.883Z,42.30
2023-03-22T10:00:11.865Z,43.95
2023-03-22T10:03:00.836Z,44.07
2023-03-22T10:05:52.940Z,44.99
2023-03-22T10:08:38.504Z,45.75
2023-03-22T10:11:20.637Z,46.55
2023-03-22T10:14:25.481Z,46.93
2023-03-22T10:16:56.642Z,46.23
2023-03-22T10:19:31.785Z,46.34
2023-03-22T10:22:02.396Z,46.43
2023-03-22T10:24:33.726Z,47.18
2023-03-22T10:27:01.603Z,48.11
2023-03-22T10:29:39.823Z,49.00
2023-03-22T10:32:21.107Z,49.53
2023-03-22T10:34:47.980Z,48.39
2023-03-22T10:37:22.602Z,48.15
2023-03-22T10:39:53.966Z,48.32
2023-03-22T10:42:28.153Z,48.07
2023-03-22T10:45:14.790Z,48.65
2023-03-22T10:47:42.642Z,48.97
2023-03-22T10:50:21.422Z,49.52
2023-03-22T10:52:58.041Z,50.26
2023-03-22T10:55:26.112Z,50.47
2023-03-22T10:58:16.060Z,50.63
2023-03-22T11:00:47.544Z,50.31
2023-03-22T11:03:37.913Z,50.63
2023-03-22T11:06:23.524Z,50.85
2023-03-22T11:08:57.502Z,50.98
2023-03-22T11:11:24.421Z,50.16
2023-03-22T11:13:55.817Z,50.32
2023-03-22T11:16:23.644Z,49.96
2023-03-22T11:18:51.044Z,50.20
2023-03-22T11:21:19.912Z,50.64
2023-03-22T11:24:00.864Z,50.94
2023-03-22T11:26:31.808Z,51.50
2023-03-22T11:29:16.707Z,51.84
2023-03-22T11:32:00.568Z,52.10
2023-03-22T11:34:31.000Z,51.97
2023-03-22T11:37:01.626Z,52.14
2023-03-22T11:39:29.860Z,52.40
2023-03-22T11:42:04.159Z,52.96
2023-03-22T11:44:38.376Z,53.42
2023-03-22T11:47:08.504Z,53.94
2023-03-22T11:49:45.653Z,54.08
2023-03-22T11:52:18.472Z,54.19
2023-03-22T11:54:47.101Z,54.54
2023-03-22T11:57:18.713Z,54.21
2023-03-22T12:00:12.041Z,54.41
2023-03-22T12:02:46.701Z,53.97
2023-03-22T12:05:24.537Z,53.76
2023-03-22T12:08:03.835Z,54.06
2023-03-22T12:10:42.829Z,54.05
2023-03-22T12:13:41.956Z,53.74
2023-03-22T12:16:15.112Z,53.07
2023-03-22T12:18:51.511Z,52.47
2023-03-22T12:21:18.439Z,52.10
2023-03-22T12:23:45.964Z,51.06
2023-03-22T12:26:20.735Z,50.29
2023-03-22T12:28:59.735Z,49.57
2023-03-22T12:31:38.297Z,49.00
2023-03-22T12:34:14.662Z,49.34
2023-03-22T12:36:47.170Z,48.69
2023-03-22T12:39:35.065Z,48.08
2023-03-22T12:42:10.997Z,48.13
2023-03-22T12:44:43.282Z,48.27
2023-03-22T12:47:20.830Z,47.78
2023-03-22T12:50:14.245Z,47.79
2023-03-22T12:52:46.115Z,48.05
2023-03-22T12:55:30.973Z,49.25
2023-03-22T12:57:59.263Z,49.40
2023-03-22T13:00:33.420Z,49.95
2023-03-22T13:03:18.953Z,50.91
2023-03-22T13:05:48.645Z,51.52
2023-03-22T13:08:21.862Z,52.09
2023-03-22T13:10:59.166Z,51.93
2023-03-22T13:13:28.002Z,52.26
2023-03-22T13:15:57.953Z,52.43
2023-03-22T13:18:37.966Z,52.38
2023-03-22T13:21:16.709Z,52.55
2023-03-22T13:24:21.157Z,52.78
2023-03-22T13:26:55.608Z,52.87
2023-03-22T13:29:25.866Z,52.47
2023-03-22T13:31:59.225Z,52.99
2023-03-22T13:34:50.734Z,53.21
2023-03-22T13:37:31.855Z,53.89
2023-03-22T13:40:02.311Z,54.30
2023-03-22T13:42:38.295Z,54.19
2023-03-22T13:45:09.537Z,54.06
2023-03-22T13:47:49.776Z,54.51
2023-03-22T13:50:29.763Z,54.84
2023-03-22T13:53:05.096Z,54.93
2023-03-22T13:55:58.871Z,55.12
2023-03-22T13:58:46.814Z,55.91
2023-03-22T14:01:36.599Z,55.95
2023-03-22T14:04:12.563Z,56.16
2023-03-22T14:06:57.578Z,56.29
2023-03-22T14:09:31.467Z,56.01
2023-03-22T14:12:28.671Z,56.43
2023-03-22T14:15:01.047Z,56.47
2023-03-22T14:17:50.715Z,56.51
2023-03-22T14:20:21.170Z,56.57
